sensor_id;sensor_type;location;lat;lon;timestamp;pressure;altitude;pressure_sealevel;temperature;humidity
49393;BME280;35268;42.642;23.308;2023-05-25T00:01:08;93891.38;;;15.89;65.52
49393;BME280;35268;42.642;23.308;2023-05-25T00:03:33;93902.56;;;15.91;65.62
49393;BME280;35268;42.642;23.308;2023-05-25T00:06:00;93897.88;;;15.88;64.93
49393;BME280;35268;42.642;23.308;2023-05-25T00:08:26;93897.78;;;15.84;64.75
49393;BME280;35268;42.642;23.308;2023-05-25T00:10:52;93900.81;;;15.82;65.28
49393;BME280;35268;42.642;23.308;2023-05-25T00:13:17;93904.66;;;15.81;65.74
49393;BME280;35268;42.642;23.308;2023-05-25T00:15:43;93908.44;;;15.80;66.30
49393;BME280;35268;42.642;23.308;2023-05-25T00:18:08;93901.09;;;15.77;66.57
49393;BME280;35268;42.642;23.308;2023-05-25T00:20:34;93908.72;;;15.75;66.78
49393;BME280;35268;42.642;23.308;2023-05-25T00:22:59;93906.69;;;15.72;67.04
49393;BME280;35268;42.642;23.308;2023-05-25T00:25:27;93908.91;;;15.70;67.58
49393;BME280;35268;42.642;23.308;2023-05-25T00:27:52;93904.31;;;15.71;67.60
49393;BME280;35268;42.642;23.308;2023-05-25T00:30:18;93914.97;;;15.67;67.85
49393;BME280;35268;42.642;23.308;2023-05-25T00:32:44;93907.28;;;15.65;68.07
49393;BME280;35268;42.642;23.308;2023-05-25T00:35:10;93910.97;;;15.61;68.64
49393;BME280;35268;42.642;23.308;2023-05-25T00:37:35;93921.53;;;15.54;68.68
49393;BME280;35268;42.642;23.308;2023-05-25T00:40:01;93915.28;;;15.50;68.71
49393;BME280;35268;42.642;23.308;2023-05-25T00:42:26;93916.97;;;15.42;69.04
49393;BME280;35268;42.642;23.308;2023-05-25T00:44:52;93917.25;;;15.37;69.57
49393;BME280;35268;42.642;23.308;2023-05-25T00:47:18;93921.63;;;15.29;69.55
49393;BME280;35268;42.642;23.308;2023-05-25T00:49:43;93923.00;;;15.23;69.88
49393;BME280;35268;42.642;23.308;2023-05-25T00:52:11;93915.59;;;15.20;70.05
49393;BME280;35268;42.642;23.308;2023-05-25T00:54:37;93919.09;;;15.20;70.39
49393;BME280;35268;42.642;23.308;2023-05-25T00:57:06;93920.09;;;15.16;70.41
49393;BME280;35268;42.642;23.308;2023-05-25T00:59:43;93914.84;;;15.07;70.54
49393;BME280;35268;42.642;23.308;2023-05-25T01:02:11;93914.75;;;15.03;70.83
49393;BME280;35268;42.642;23.308;2023-05-25T01:04:46;93917.44;;;15.03;70.98
49393;BME280;35268;42.642;23.308;2023-05-25T01:07:21;93918.56;;;15.02;71.00
49393;BME280;35268;42.642;23.308;2023-05-25T01:10:00;93917.69;;;14.98;71.31
49393;BME280;35268;42.642;23.308;2023-05-25T01:12:27;93929.09;;;14.95;71.53
49393;BME280;35268;42.642;23.308;2023-05-25T01:14:54;93927.75;;;14.89;71.59
49393;BME280;35268;42.642;23.308;2023-05-25T01:17:20;93927.31;;;14.87;71.67
49393;BME280;35268;42.642;23.308;2023-05-25T01:19:45;93932.56;;;14.83;71.66
49393;BME280;35268;42.642;23.308;2023-05-25T01:22:18;93925.53;;;14.79;71.47
49393;BME280;35268;42.642;23.308;2023-05-25T01:24:52;93924.53;;;14.71;71.25
49393;BME280;35268;42.642;23.308;2023-05-25T01:30:01;93918.50;;;14.50;72.09
49393;BME280;35268;42.642;23.308;2023-05-25T01:32:30;93916.72;;;14.41;72.18
49393;BME280;35268;42.642;23.308;2023-05-25T01:34:58;93919.38;;;14.41;72.42
49393;BME280;35268;42.642;23.308;2023-05-25T01:37:26;93918.13;;;14.39;72.15
49393;BME280;35268;42.642;23.308;2023-05-25T01:39:51;93910.34;;;14.34;72.44
49393;BME280;35268;42.642;23.308;2023-05-25T01:42:17;93901.59;;;14.37;72.30
49393;BME280;35268;42.642;23.308;2023-05-25T01:44:42;93903.84;;;14.35;72.21
49393;BME280;35268;42.642;23.308;2023-05-25T01:47:21;93890.22;;;14.40;72.33
49393;BME280;35268;42.642;23.308;2023-05-25T01:52:29;93883.41;;;14.30;72.74
49393;BME280;35268;42.642;23.308;2023-05-25T01:55:05;93893.81;;;14.32;72.75
49393;BME280;35268;42.642;23.308;2023-05-25T01:57:34;93886.53;;;14.32;72.66
49393;BME280;35268;42.642;23.308;2023-05-25T07:24:04;94026.63;;;20.02;58.95
49393;BME280;35268;42.642;23.308;2023-05-25T07:26:30;94045.03;;;19.89;59.86
49393;BME280;35268;42.642;23.308;2023-05-25T07:28:59;94041.97;;;19.91;59.98
49393;BME280;35268;42.642;23.308;2023-05-25T07:31:25;94030.81;;;19.96;60.15
49393;BME280;35268;42.642;23.308;2023-05-25T07:33:52;94050.59;;;20.03;58.48
49393;BME280;35268;42.642;23.308;2023-05-25T07:36:19;94053.69;;;20.02;59.94
49393;BME280;35268;42.642;23.308;2023-05-25T07:38:46;94050.91;;;19.98;59.60
49393;BME280;35268;42.642;23.308;2023-05-25T07:41:12;94044.78;;;20.01;57.04
49393;BME280;35268;42.642;23.308;2023-05-25T07:43:38;94045.66;;;20.09;57.55
49393;BME280;35268;42.642;23.308;2023-05-25T07:46:03;94049.09;;;20.06;59.06
49393;BME280;35268;42.642;23.308;2023-05-25T07:48:29;94054.31;;;20.22;57.26
49393;BME280;35268;42.642;23.308;2023-05-25T07:50:54;94047.72;;;20.19;57.69
49393;BME280;35268;42.642;23.308;2023-05-25T07:53:20;94056.56;;;20.16;58.30
49393;BME280;35268;42.642;23.308;2023-05-25T07:55:46;94048.91;;;19.92;55.39
49393;BME280;35268;42.642;23.308;2023-05-25T07:58:11;94060.72;;;19.76;56.57
49393;BME280;35268;42.642;23.308;2023-05-25T08:00:37;94057.47;;;19.67;56.53
49393;BME280;35268;42.642;23.308;2023-05-25T08:03:02;94059.75;;;19.65;57.68
49393;BME280;35268;42.642;23.308;2023-05-25T08:05:28;94061.34;;;19.70;58.09
49393;BME280;35268;42.642;23.308;2023-05-25T08:07:53;94063.00;;;19.74;56.98
49393;BME280;35268;42.642;23.308;2023-05-25T08:10:19;94066.69;;;19.66;56.75
49393;BME280;35268;42.642;23.308;2023-05-25T08:12:44;94067.91;;;19.69;57.94
49393;BME280;35268;42.642;23.308;2023-05-25T08:15:10;94071.13;;;19.74;58.33
49393;BME280;35268;42.642;23.308;2023-05-25T08:17:37;94077.78;;;19.57;57.14
49393;BME280;35268;42.642;23.308;2023-05-25T08:20:02;94076.59;;;19.55;56.13
49393;BME280;35268;42.642;23.308;2023-05-25T08:22:30;94082.00;;;19.55;56.71
49393;BME280;35268;42.642;23.308;2023-05-25T08:24:56;94085.53;;;19.59;56.94
49393;BME280;35268;42.642;23.308;2023-05-25T08:27:21;94093.13;;;19.50;57.83
49393;BME280;35268;42.642;23.308;2023-05-25T08:29:47;94108.81;;;19.40;59.11
49393;BME280;35268;42.642;23.308;2023-05-25T08:32:12;94115.25;;;19.32;59.36
49393;BME280;35268;42.642;23.308;2023-05-25T08:34:38;94121.56;;;19.17;61.06
49393;BME280;35268;42.642;23.308;2023-05-25T08:37:03;94125.00;;;19.14;61.37
49393;BME280;35268;42.642;23.308;2023-05-25T08:39:29;94124.09;;;19.06;60.69
49393;BME280;35268;42.642;23.308;2023-05-25T08:41:57;94129.19;;;18.88;60.94
49393;BME280;35268;42.642;23.308;2023-05-25T08:44:25;94137.88;;;18.58;61.98
49393;BME280;35268;42.642;23.308;2023-05-25T08:46:51;94139.31;;;18.33;61.63
49393;BME280;35268;42.642;23.308;2023-05-25T08:49:21;94138.03;;;18.27;63.34
49393;BME280;35268;42.642;23.308;2023-05-25T08:51:48;94146.47;;;18.25;64.92
49393;BME280;35268;42.642;23.308;2023-05-25T08:54:18;94152.41;;;18.15;64.76
49393;BME280;35268;42.642;23.308;2023-05-25T08:56:51;94143.91;;;18.13;67.46
49393;BME280;35268;42.642;23.308;2023-05-25T09:01:45;94145.47;;;18.14;67.71
49393;BME280;35268;42.642;23.308;2023-05-25T09:04:12;94149.38;;;18.16;69.51
49393;BME280;35268;42.642;23.308;2023-05-25T09:06:38;94141.72;;;18.18;69.59
49393;BME280;35268;42.642;23.308;2023-05-25T09:09:04;94147.25;;;18.25;69.93
49393;BME280;35268;42.642;23.308;2023-05-25T09:11:30;94152.63;;;18.25;68.64
49393;BME280;35268;42.642;23.308;2023-05-25T09:13:56;94162.00;;;18.32;66.87
49393;BME280;35268;42.642;23.308;2023-05-25T09:16:22;94153.56;;;18.33;67.42
49393;BME280;35268;42.642;23.308;2023-05-25T09:18:48;94155.50;;;18.33;67.44
49393;BME280;35268;42.642;23.308;2023-05-25T09:21:13;94157.34;;;18.29;65.55
49393;BME280;35268;42.642;23.308;2023-05-25T09:23:39;94151.44;;;18.03;61.74
49393;BME280;35268;42.642;23.308;2023-05-25T09:26:05;94153.19;;;17.96;63.37
49393;BME280;35268;42.642;23.308;2023-05-25T09:28:30;94153.19;;;17.96;66.37
49393;BME280;35268;42.642;23.308;2023-05-25T09:30:56;94151.13;;;17.89;65.50
49393;BME280;35268;42.642;23.308;2023-05-25T09:33:22;94155.22;;;17.83;63.32
49393;BME280;35268;42.642;23.308;2023-05-25T09:35:47;94149.38;;;17.81;63.52
49393;BME280;35268;42.642;23.308;2023-05-25T09:38:16;94149.38;;;17.81;63.87
49393;BME280;35268;42.642;23.308;2023-05-25T09:40:43;94132.81;;;17.82;64.80
49393;BME280;35268;42.642;23.308;2023-05-25T09:43:08;94137.78;;;17.80;64.75
49393;BME280;35268;42.642;23.308;2023-05-25T09:45:35;94138.59;;;17.81;67.89
49393;BME280;35268;42.642;23.308;2023-05-25T09:48:01;94128.31;;;17.87;67.48
49393;BME280;35268;42.642;23.308;2023-05-25T09:50:30;94124.06;;;17.86;69.04
49393;BME280;35268;42.642;23.308;2023-05-25T09:52:59;94128.06;;;17.92;70.06
49393;BME280;35268;42.642;23.308;2023-05-25T09:55:27;94115.22;;;18.04;66.24
49393;BME280;35268;42.642;23.308;2023-05-25T09:57:53;94108.34;;;18.27;65.36
49393;BME280;35268;42.642;23.308;2023-05-25T10:00:21;94103.72;;;18.47;66.14
49393;BME280;35268;42.642;23.308;2023-05-25T10:02:46;94099.84;;;18.67;66.07
49393;BME280;35268;42.642;23.308;2023-05-25T10:05:12;94099.19;;;18.93;65.81
49393;BME280;35268;42.642;23.308;2023-05-25T10:07:37;94100.00;;;19.20;61.86
49393;BME280;35268;42.642;23.308;2023-05-25T10:10:05;94103.09;;;19.45;60.31
49393;BME280;35268;42.642;23.308;2023-05-25T10:12:34;94096.34;;;19.59;60.20
49393;BME280;35268;42.642;23.308;2023-05-25T10:15:02;94096.44;;;19.66;61.53
49393;BME280;35268;42.642;23.308;2023-05-25T10:17:29;94097.88;;;19.56;59.99
49393;BME280;35268;42.642;23.308;2023-05-25T10:19:59;94093.28;;;19.60;62.11
49393;BME280;35268;42.642;23.308;2023-05-25T10:22:35;94096.41;;;19.62;64.72
49393;BME280;35268;42.642;23.308;2023-05-25T10:25:16;94093.22;;;19.57;61.78
49393;BME280;35268;42.642;23.308;2023-05-25T10:27:55;94076.38;;;19.67;61.54
49393;BME280;35268;42.642;23.308;2023-05-25T10:30:24;94086.53;;;19.74;60.90
49393;BME280;35268;42.642;23.308;2023-05-25T10:32:50;94075.41;;;19.79;59.09
49393;BME280;35268;42.642;23.308;2023-05-25T10:35:16;94076.19;;;19.79;62.61
49393;BME280;35268;42.642;23.308;2023-05-25T10:37:42;94071.19;;;19.81;64.12
49393;BME280;35268;42.642;23.308;2023-05-25T10:40:09;94064.50;;;19.72;62.20
49393;BME280;35268;42.642;23.308;2023-05-25T10:42:36;94065.31;;;19.76;61.96
49393;BME280;35268;42.642;23.308;2023-05-25T10:45:04;94064.13;;;19.73;61.00
49393;BME280;35268;42.642;23.308;2023-05-25T10:47:33;94056.13;;;19.80;62.73
49393;BME280;35268;42.642;23.308;2023-05-25T10:49:59;94051.84;;;19.79;63.86
49393;BME280;35268;42.642;23.308;2023-05-25T10:52:28;94030.97;;;19.76;61.24
49393;BME280;35268;42.642;23.308;2023-05-25T10:55:00;94035.25;;;19.81;64.19
49393;BME280;35268;42.642;23.308;2023-05-25T10:57:28;94032.63;;;19.84;61.33
49393;BME280;35268;42.642;23.308;2023-05-25T11:00:00;94029.50;;;19.82;62.92
49393;BME280;35268;42.642;23.308;2023-05-25T11:02:26;94034.81;;;19.75;63.38
49393;BME280;35268;42.642;23.308;2023-05-25T11:08:03;94027.72;;;19.67;61.96
49393;BME280;35268;42.642;23.308;2023-05-25T11:13:33;94027.16;;;19.54;61.37
49393;BME280;35268;42.642;23.308;2023-05-25T11:16:37;94028.44;;;19.64;61.85
49393;BME280;35268;42.642;23.308;2023-05-25T11:19:13;94033.75;;;19.57;63.15
49393;BME280;35268;42.642;23.308;2023-05-25T11:21:42;94030.06;;;19.69;62.64
49393;BME280;35268;42.642;23.308;2023-05-25T11:24:13;94034.44;;;19.77;61.44
49393;BME280;35268;42.642;23.308;2023-05-25T11:26:59;94032.28;;;19.90;60.78
49393;BME280;35268;42.642;23.308;2023-05-25T11:29:29;94044.31;;;19.96;60.26
49393;BME280;35268;42.642;23.308;2023-05-25T11:31:55;94040.91;;;19.99;59.65
49393;BME280;35268;42.642;23.308;2023-05-25T11:34:22;94042.84;;;20.02;60.30
49393;BME280;35268;42.642;23.308;2023-05-25T11:36:52;94035.75;;;19.90;60.48
49393;BME280;35268;42.642;23.308;2023-05-25T11:39:19;94037.28;;;19.88;60.70
49393;BME280;35268;42.642;23.308;2023-05-25T11:41:51;94029.44;;;19.79;60.05
49393;BME280;35268;42.642;23.308;2023-05-25T11:44:25;94035.97;;;19.78;61.83
49393;BME280;35268;42.642;23.308;2023-05-25T11:46:53;94039.56;;;19.86;60.95
49393;BME280;35268;42.642;23.308;2023-05-25T11:49:22;94035.81;;;19.94;59.60
49393;BME280;35268;42.642;23.308;2023-05-25T11:51:48;94038.97;;;19.99;59.86
49393;BME280;35268;42.642;23.308;2023-05-25T11:54:25;94033.66;;;20.10;59.22
49393;BME280;35268;42.642;23.308;2023-05-25T11:56:52;94041.38;;;20.08;58.77
49393;BME280;35268;42.642;23.308;2023-05-25T11:59:18;94032.53;;;20.11;58.18
49393;BME280;35268;42.642;23.308;2023-05-25T12:02:02;94026.78;;;20.16;58.08
49393;BME280;35268;42.642;23.308;2023-05-25T12:04:29;94025.31;;;20.22;58.69
49393;BME280;35268;42.642;23.308;2023-05-25T12:07:05;94018.41;;;20.29;55.97
49393;BME280;35268;42.642;23.308;2023-05-25T12:09:31;94028.13;;;20.33;55.71
49393;BME280;35268;42.642;23.308;2023-05-25T12:11:57;94015.78;;;20.36;56.29
49393;BME280;35268;42.642;23.308;2023-05-25T12:14:24;94022.06;;;20.47;55.89
49393;BME280;35268;42.642;23.308;2023-05-25T12:16:50;94026.41;;;20.55;55.42
49393;BME280;35268;42.642;23.308;2023-05-25T12:19:16;94032.75;;;20.67;54.45
49393;BME280;35268;42.642;23.308;2023-05-25T12:21:42;94028.16;;;20.71;54.66
49393;BME280;35268;42.642;23.308;2023-05-25T12:24:09;94017.06;;;20.87;54.19
49393;BME280;35268;42.642;23.308;2023-05-25T12:26:48;94008.72;;;21.10;53.93
49393;BME280;35268;42.642;23.308;2023-05-25T12:29:14;94003.78;;;21.26;53.19
49393;BME280;35268;42.642;23.308;2023-05-25T12:31:40;94005.47;;;21.45;52.96
49393;BME280;35268;42.642;23.308;2023-05-25T12:34:15;94002.44;;;21.54;50.93
49393;BME280;35268;42.642;23.308;2023-05-25T12:39:12;93987.63;;;22.24;50.26
49393;BME280;35268;42.642;23.308;2023-05-25T12:41:49;93997.41;;;22.61;49.00
49393;BME280;35268;42.642;23.308;2023-05-25T12:49:38;93970.59;;;23.46;46.59
49393;BME280;35268;42.642;23.308;2023-05-25T12:52:04;93966.63;;;23.69;43.07
49393;BME280;35268;42.642;23.308;2023-05-25T12:54:44;93958.81;;;23.92;40.67
49393;BME280;35268;42.642;23.308;2023-05-25T12:57:14;93952.75;;;24.33;40.30
49393;BME280;35268;42.642;23.308;2023-05-25T12:59:42;93956.53;;;24.57;41.17
49393;BME280;35268;42.642;23.308;2023-05-25T13:02:08;93956.84;;;24.67;42.04
49393;BME280;35268;42.642;23.308;2023-05-25T13:04:37;93941.25;;;25.16;39.45
49393;BME280;35268;42.642;23.308;2023-05-25T13:07:04;93941.44;;;25.74;37.63
49393;BME280;35268;42.642;23.308;2023-05-25T13:09:33;93934.50;;;26.31;35.40
49393;BME280;35268;42.642;23.308;2023-05-25T13:11:59;93937.63;;;27.31;33.10
49393;BME280;35268;42.642;23.308;2023-05-25T13:14:26;93928.19;;;28.15;31.95
49393;BME280;35268;42.642;23.308;2023-05-25T13:16:52;93924.53;;;28.91;30.10
49393;BME280;35268;42.642;23.308;2023-05-25T13:19:19;93935.41;;;29.57;29.06
49393;BME280;35268;42.642;23.308;2023-05-25T13:21:45;93923.06;;;30.07;28.51
49393;BME280;35268;42.642;23.308;2023-05-25T13:24:13;93923.22;;;30.68;27.80
49393;BME280;35268;42.642;23.308;2023-05-25T13:26:39;93926.19;;;30.86;26.84
49393;BME280;35268;42.642;23.308;2023-05-25T13:29:04;93927.34;;;31.24;25.92
49393;BME280;35268;42.642;23.308;2023-05-25T13:31:30;93928.72;;;31.06;25.38
49393;BME280;35268;42.642;23.308;2023-05-25T13:33:56;93925.75;;;31.01;25.98
49393;BME280;35268;42.642;23.308;2023-05-25T13:36:23;93924.47;;;31.27;26.10
49393;BME280;35268;42.642;23.308;2023-05-25T13:38:49;93924.72;;;31.99;25.38
49393;BME280;35268;42.642;23.308;2023-05-25T13:41:14;93926.44;;;32.28;23.72
49393;BME280;35268;42.642;23.308;2023-05-25T13:43:40;93924.28;;;32.54;22.97
49393;BME280;35268;42.642;23.308;2023-05-25T13:46:06;93926.06;;;32.38;23.05
49393;BME280;35268;42.642;23.308;2023-05-25T13:48:31;93929.69;;;32.57;22.34
49393;BME280;35268;42.642;23.308;2023-05-25T13:50:57;93936.72;;;32.58;23.31
49393;BME280;35268;42.642;23.308;2023-05-25T13:53:24;93921.53;;;32.94;22.17
49393;BME280;35268;42.642;23.308;2023-05-25T13:55:49;93920.75;;;33.03;21.13
49393;BME280;35268;42.642;23.308;2023-05-25T13:58:15;93925.28;;;33.19;20.89
49393;BME280;35268;42.642;23.308;2023-05-25T14:00:40;93926.84;;;33.57;21.03
49393;BME280;35268;42.642;23.308;2023-05-25T14:03:06;93935.72;;;34.07;19.61
49393;BME280;35268;42.642;23.308;2023-05-25T14:05:32;93926.34;;;34.32;19.39
49393;BME280;35268;42.642;23.308;2023-05-25T14:07:58;93925.56;;;34.32;19.94
49393;BME280;35268;42.642;23.308;2023-05-25T14:10:26;93927.63;;;34.65;18.95
49393;BME280;35268;42.642;23.308;2023-05-25T14:12:52;93920.16;;;35.38;18.52
49393;BME280;35268;42.642;23.308;2023-05-25T14:15:17;93930.22;;;36.28;18.41
49393;BME280;35268;42.642;23.308;2023-05-25T14:17:43;93928.94;;;36.73;16.96
49393;BME280;35268;42.642;23.308;2023-05-25T14:20:08;93922.56;;;37.03;17.40
49393;BME280;35268;42.642;23.308;2023-05-25T14:22:34;93913.38;;;36.97;16.58
49393;BME280;35268;42.642;23.308;2023-05-25T14:24:59;93918.63;;;36.29;17.21
49393;BME280;35268;42.642;23.308;2023-05-25T14:27:25;93907.50;;;36.00;16.87
49393;BME280;35268;42.642;23.308;2023-05-25T14:29:50;93906.75;;;36.29;18.28
49393;BME280;35268;42.642;23.308;2023-05-25T14:32:17;93902.34;;;36.37;16.59
49393;BME280;35268;42.642;23.308;2023-05-25T14:34:43;93906.16;;;36.54;15.96
49393;BME280;35268;42.642;23.308;2023-05-25T14:37:09;93903.31;;;36.99;16.20
49393;BME280;35268;42.642;23.308;2023-05-25T14:39:35;93893.44;;;36.98;16.30
49393;BME280;35268;42.642;23.308;2023-05-25T14:42:03;93900.78;;;36.81;16.26
49393;BME280;35268;42.642;23.308;2023-05-25T14:44:30;93892.72;;;37.18;16.88
49393;BME280;35268;42.642;23.308;2023-05-25T14:46:55;93891.25;;;37.90;15.16
49393;BME280;35268;42.642;23.308;2023-05-25T14:49:20;93892.50;;;38.73;14.03
49393;BME280;35268;42.642;23.308;2023-05-25T14:51:55;93890.59;;;39.33;14.10
49393;BME280;35268;42.642;23.308;2023-05-25T14:54:20;93888.81;;;39.96;14.03
49393;BME280;35268;42.642;23.308;2023-05-25T14:56:46;93884.03;;;40.47;13.94
49393;BME280;35268;42.642;23.308;2023-05-25T14:59:12;93884.53;;;40.85;12.83
49393;BME280;35268;42.642;23.308;2023-05-25T15:01:37;93880.91;;;41.24;12.34
49393;BME280;35268;42.642;23.308;2023-05-25T15:04:02;93882.13;;;41.40;12.65
49393;BME280;35268;42.642;23.308;2023-05-25T15:06:28;93877.84;;;41.22;13.04
49393;BME280;35268;42.642;23.308;2023-05-25T15:08:53;93869.84;;;41.55;12.60
49393;BME280;35268;42.642;23.308;2023-05-25T15:11:19;93870.06;;;41.62;11.88
49393;BME280;35268;42.642;23.308;2023-05-25T15:13:45;93864.38;;;41.15;12.69
49393;BME280;35268;42.642;23.308;2023-05-25T15:16:14;93869.47;;;39.76;13.17
49393;BME280;35268;42.642;23.308;2023-05-25T15:18:40;93871.63;;;37.99;14.99
49393;BME280;35268;42.642;23.308;2023-05-25T15:21:06;93872.94;;;37.78;15.94
49393;BME280;35268;42.642;23.308;2023-05-25T15:23:31;93871.16;;;38.27;15.21
49393;BME280;35268;42.642;23.308;2023-05-25T15:25:57;93872.75;;;38.71;14.53
49393;BME280;35268;42.642;23.308;2023-05-25T15:28:27;93879.47;;;38.53;14.69
49393;BME280;35268;42.642;23.308;2023-05-25T15:30:52;93879.31;;;37.84;16.14
49393;BME280;35268;42.642;23.308;2023-05-25T15:33:17;93879.44;;;37.28;18.89
49393;BME280;35268;42.642;23.308;2023-05-25T15:35:43;93876.38;;;37.05;19.51
49393;BME280;35268;42.642;23.308;2023-05-25T15:38:08;93880.91;;;36.52;19.91
49393;BME280;35268;42.642;23.308;2023-05-25T15:40:34;93881.00;;;35.84;21.08
49393;BME280;35268;42.642;23.308;2023-05-25T15:43:01;93887.06;;;34.86;22.12
49393;BME280;35268;42.642;23.308;2023-05-25T15:45:26;93887.19;;;33.97;23.30
49393;BME280;35268;42.642;23.308;2023-05-25T15:47:52;93879.84;;;33.11;24.32
49393;BME280;35268;42.642;23.308;2023-05-25T15:50:17;93885.06;;;31.96;26.07
49393;BME280;35268;42.642;23.308;2023-05-25T15:52:42;93891.34;;;31.18;27.54
49393;BME280;35268;42.642;23.308;2023-05-25T15:55:08;93897.28;;;30.43;28.56
49393;BME280;35268;42.642;23.308;2023-05-25T15:57:33;93898.22;;;29.69;29.85
49393;BME280;35268;42.642;23.308;2023-05-25T15:59:59;93896.72;;;29.06;30.61
49393;BME280;35268;42.642;23.308;2023-05-25T16:02:24;93897.75;;;28.46;31.96
49393;BME280;35268;42.642;23.308;2023-05-25T16:04:49;93884.50;;;28.08;33.09
49393;BME280;35268;42.642;23.308;2023-05-25T16:07:15;93890.38;;;27.50;35.38
49393;BME280;35268;42.642;23.308;2023-05-25T16:09:40;93893.59;;;27.01;37.75
49393;BME280;35268;42.642;23.308;2023-05-25T16:12:06;93881.69;;;26.65;38.61
49393;BME280;35268;42.642;23.308;2023-05-25T16:14:31;93882.75;;;26.20;41.13
49393;BME280;35268;42.642;23.308;2023-05-25T16:16:57;93892.88;;;25.92;41.59
49393;BME280;35268;42.642;23.308;2023-05-25T16:19:22;93902.59;;;25.62;42.80
49393;BME280;35268;42.642;23.308;2023-05-25T16:21:48;93919.69;;;25.32;44.77
49393;BME280;35268;42.642;23.308;2023-05-25T16:24:13;93918.34;;;25.06;45.08
49393;BME280;35268;42.642;23.308;2023-05-25T16:26:39;93910.75;;;24.83;45.12
49393;BME280;35268;42.642;23.308;2023-05-25T16:29:04;93934.41;;;24.45;45.08
49393;BME280;35268;42.642;23.308;2023-05-25T16:31:29;93915.50;;;24.16;46.02
49393;BME280;35268;42.642;23.308;2023-05-25T16:33:55;93915.66;;;23.91;46.43
49393;BME280;35268;42.642;23.308;2023-05-25T16:36:21;93921.19;;;23.66;47.15
49393;BME280;35268;42.642;23.308;2023-05-25T16:38:46;93929.41;;;23.48;48.00
49393;BME280;35268;42.642;23.308;2023-05-25T16:41:11;93931.78;;;23.24;47.49
49393;BME280;35268;42.642;23.308;2023-05-25T16:43:37;93945.00;;;23.00;48.26
49393;BME280;35268;42.642;23.308;2023-05-25T16:46:02;93939.19;;;22.77;48.05
49393;BME280;35268;42.642;23.308;2023-05-25T16:48:28;93951.59;;;22.53;48.97
49393;BME280;35268;42.642;23.308;2023-05-25T16:50:55;93953.13;;;22.36;49.32
49393;BME280;35268;42.642;23.308;2023-05-25T16:53:21;93964.72;;;22.22;50.11
49393;BME280;35268;42.642;23.308;2023-05-25T16:55:46;93968.94;;;22.05;52.10
49393;BME280;35268;42.642;23.308;2023-05-25T16:58:12;93978.56;;;21.84;53.76
49393;BME280;35268;42.642;23.308;2023-05-25T17:00:37;93977.72;;;21.66;54.73
49393;BME280;35268;42.642;23.308;2023-05-25T17:03:03;93991.22;;;21.52;55.83
49393;BME280;35268;42.642;23.308;2023-05-25T17:05:28;93988.00;;;21.39;57.24
49393;BME280;35268;42.642;23.308;2023-05-25T17:07:53;93992.97;;;21.26;56.75
49393;BME280;35268;42.642;23.308;2023-05-25T17:10:19;93992.91;;;21.19;58.67
49393;BME280;35268;42.642;23.308;2023-05-25T17:12:44;93994.41;;;21.09;59.90
49393;BME280;35268;42.642;23.308;2023-05-25T17:15:10;94004.34;;;20.94;57.80
49393;BME280;35268;42.642;23.308;2023-05-25T17:17:37;93999.59;;;20.80;59.08
49393;BME280;35268;42.642;23.308;2023-05-25T17:20:03;93993.31;;;20.69;59.73
49393;BME280;35268;42.642;23.308;2023-05-25T17:22:29;94000.13;;;20.56;59.79
49393;BME280;35268;42.642;23.308;2023-05-25T17:24:54;93991.88;;;20.41;59.23
49393;BME280;35268;42.642;23.308;2023-05-25T17:27:20;93989.34;;;20.22;59.43
49393;BME280;35268;42.642;23.308;2023-05-25T17:29:45;93985.31;;;20.05;61.92
49393;BME280;35268;42.642;23.308;2023-05-25T17:32:11;93985.81;;;19.80;62.96
49393;BME280;35268;42.642;23.308;2023-05-25T17:34:36;93987.09;;;19.63;65.84
49393;BME280;35268;42.642;23.308;2023-05-25T17:37:01;93981.16;;;19.51;66.21
49393;BME280;35268;42.642;23.308;2023-05-25T17:39:30;93987.25;;;19.44;65.81
49393;BME280;35268;42.642;23.308;2023-05-25T17:41:55;93990.31;;;19.42;66.90
49393;BME280;35268;42.642;23.308;2023-05-25T17:44:21;93984.44;;;19.37;67.68
49393;BME280;35268;42.642;23.308;2023-05-25T17:46:46;93982.50;;;19.37;68.84
49393;BME280;35268;42.642;23.308;2023-05-25T17:49:11;93972.44;;;19.34;67.13
49393;BME280;35268;42.642;23.308;2023-05-25T17:51:37;93967.75;;;19.31;67.23
49393;BME280;35268;42.642;23.308;2023-05-25T17:54:03;93978.47;;;19.24;68.20
49393;BME280;35268;42.642;23.308;2023-05-25T17:56:29;93970.66;;;19.15;68.22
49393;BME280;35268;42.642;23.308;2023-05-25T17:58:55;93962.91;;;19.14;67.81
49393;BME280;35268;42.642;23.308;2023-05-25T18:01:21;93966.75;;;19.13;68.22
49393;BME280;35268;42.642;23.308;2023-05-25T18:03:46;93970.25;;;19.13;69.56
49393;BME280;35268;42.642;23.308;2023-05-25T18:06:14;93974.00;;;19.09;69.95
49393;BME280;35268;42.642;23.308;2023-05-25T18:08:40;93989.81;;;19.07;69.75
49393;BME280;35268;42.642;23.308;2023-05-25T18:11:05;93999.06;;;19.06;68.81
49393;BME280;35268;42.642;23.308;2023-05-25T18:13:31;94000.94;;;19.01;68.93
49393;BME280;35268;42.642;23.308;2023-05-25T18:15:56;94005.50;;;18.97;69.30
49393;BME280;35268;42.642;23.308;2023-05-25T18:18:21;94009.69;;;18.95;71.22
49393;BME280;35268;42.642;23.308;2023-05-25T18:20:49;94012.63;;;18.86;71.64
49393;BME280;35268;42.642;23.308;2023-05-25T18:23:14;94026.03;;;18.79;71.73
49393;BME280;35268;42.642;23.308;2023-05-25T18:25:39;94027.88;;;18.75;71.44
49393;BME280;35268;42.642;23.308;2023-05-25T18:28:05;94024.56;;;18.62;69.02
49393;BME280;35268;42.642;23.308;2023-05-25T18:30:30;94037.16;;;18.54;69.01
49393;BME280;35268;42.642;23.308;2023-05-25T18:32:56;94035.91;;;18.48;69.08
49393;BME280;35268;42.642;23.308;2023-05-25T18:35:21;94038.22;;;18.50;70.04